createdAt,value
2022-11-10T00:04:18.957Z,41
2022-11-10T00:09:35.148Z,40
2022-11-10T00:14:51.693Z,40
2022-11-10T00:20:08.704Z,39
2022-11-10T00:25:25.129Z,41
2022-11-10T00:30:44.543Z,39
2022-11-10T00:35:58.103Z,39
2022-11-10T00:41:14.476Z,39
2022-11-10T00:46:30.962Z,36
2022-11-10T00:51:48.018Z,39
2022-11-10T00:57:04.499Z,36
2022-11-10T01:02:20.995Z,36
2022-11-10T01:07:37.538Z,35
2022-11-10T01:12:54.003Z,36
2022-11-10T01:18:10.239Z,35
2022-11-10T01:23:26.772Z,36
2022-11-10T01:28:43.248Z,35
2022-11-10T01:33:59.581Z,37
2022-11-10T01:39:16.078Z,34
2022-11-10T01:44:32.569Z,35
2022-11-10T01:49:49.041Z,35
2022-11-10T01:55:05.515Z,36
2022-11-10T02:00:21.958Z,34
2022-11-10T02:05:38.478Z,34
2022-11-10T02:10:55.000Z,35
2022-11-10T02:16:11.418Z,36
2022-11-10T02:21:27.715Z,34
2022-11-10T02:26:44.856Z,36
2022-11-10T02:32:01.911Z,35
2022-11-10T02:37:18.400Z,33
2022-11-10T02:42:34.928Z,34
2022-11-10T02:47:51.455Z,33
2022-11-10T02:53:08.556Z,35
2022-11-10T02:58:25.040Z,34
2022-11-10T03:03:42.004Z,34
2022-11-10T03:08:59.025Z,33
2022-11-10T03:14:15.885Z,34
2022-11-10T03:19:32.352Z,35
2022-11-10T03:24:48.838Z,31
2022-11-10T03:30:05.882Z,35
2022-11-10T03:35:22.409Z,33
2022-11-10T03:41:12.117Z,33
2022-11-10T03:45:55.413Z,33
2022-11-10T03:51:11.621Z,34
2022-11-10T03:56:28.100Z,33
2022-11-10T04:01:45.275Z,34
2022-11-10T04:07:02.252Z,34
2022-11-10T04:12:24.489Z,30
2022-11-10T04:17:35.203Z,32
2022-11-10T04:22:52.018Z,32
2022-11-10T04:28:08.561Z,33
2022-11-10T04:33:25.769Z,29
2022-11-10T04:38:42.270Z,26
2022-11-10T04:43:58.759Z,26
2022-11-10T04:49:15.256Z,25
2022-11-10T04:54:31.693Z,23
2022-11-10T04:59:48.244Z,22
2022-11-10T05:05:04.703Z,22
2022-11-10T05:10:21.213Z,21
2022-11-10T05:15:37.626Z,21
2022-11-10T05:20:54.093Z,19
2022-11-10T05:26:10.732Z,19
2022-11-10T05:31:27.172Z,17
2022-11-10T05:36:43.657Z,15
2022-11-10T05:42:03.155Z,15
2022-11-10T05:47:19.623Z,13
2022-11-10T05:52:36.054Z,13
2022-11-10T05:57:52.536Z,13
2022-11-10T06:03:09.736Z,13
2022-11-10T06:08:26.172Z,13
2022-11-10T06:13:42.313Z,14
2022-11-10T06:18:58.803Z,14
2022-11-10T06:24:15.268Z,15
2022-11-10T06:29:32.078Z,14
2022-11-10T06:34:48.591Z,15
2022-11-10T06:40:05.062Z,16
2022-11-10T06:45:21.504Z,14
2022-11-10T06:50:37.975Z,16
2022-11-10T06:55:54.461Z,14
2022-11-10T07:01:10.944Z,16
2022-11-10T07:06:27.373Z,16
2022-11-10T07:11:43.831Z,16
2022-11-10T07:17:05.232Z,14
2022-11-10T07:22:21.724Z,14
2022-11-10T07:27:38.213Z,12
2022-11-10T07:32:54.691Z,11
2022-11-10T07:38:11.173Z,12
2022-11-10T07:43:27.633Z,13
2022-11-10T07:48:44.106Z,13
2022-11-10T07:54:03.280Z,12
2022-11-10T07:59:19.684Z,14
2022-11-10T08:04:36.197Z,11
2022-11-10T08:09:52.707Z,13
2022-11-10T08:15:09.190Z,12
2022-11-10T08:20:25.719Z,11
2022-11-10T08:25:42.104Z,13
2022-11-10T08:31:02.795Z,12
2022-11-10T08:36:15.076Z,14
2022-11-10T08:41:31.555Z,17
2022-11-10T08:46:48.065Z,15
2022-11-10T08:52:04.548Z,15
2022-11-10T08:57:21.041Z,12
2022-11-10T09:02:37.501Z,12
2022-11-10T09:07:54.026Z,13
2022-11-10T09:13:10.469Z,11
2022-11-10T09:18:26.946Z,10
2022-11-10T09:23:43.452Z,10
2022-11-10T09:28:59.954Z,10
2022-11-10T09:34:16.438Z,10
2022-11-10T09:39:32.872Z,11
2022-11-10T09:44:49.443Z,10
2022-11-10T09:50:05.904Z,10
2022-11-10T09:55:22.336Z,9
2022-11-10T10:00:38.795Z,9
2022-11-10T10:05:55.212Z,8
2022-11-10T10:11:11.646Z,9
2022-11-10T10:16:28.125Z,8
2022-11-10T10:21:44.590Z,10
2022-11-10T10:27:03.749Z,10
2022-11-10T10:32:20.252Z,12
2022-11-10T10:37:36.746Z,14
2022-11-10T10:42:53.211Z,13
2022-11-10T10:48:09.622Z,13
2022-11-10T10:53:26.041Z,12
2022-11-10T10:58:42.481Z,11
2022-11-10T11:03:58.979Z,12
2022-11-10T11:09:15.386Z,9
2022-11-10T11:14:31.815Z,9
2022-11-10T11:19:48.310Z,7
2022-11-10T11:25:04.777Z,9
2022-11-10T11:30:21.420Z,8
2022-11-10T11:35:37.728Z,8
2022-11-10T11:40:54.156Z,8
2022-11-10T11:46:10.596Z,8
2022-11-10T11:51:27.083Z,7
2022-11-10T11:56:43.526Z,6
2022-11-10T12:02:00.058Z,7
2022-11-10T12:07:16.512Z,7
2022-11-10T12:12:32.880Z,8
2022-11-10T12:17:49.308Z,10
2022-11-10T12:23:05.793Z,9
2022-11-10T12:28:22.566Z,7
2022-11-10T12:33:38.893Z,8
2022-11-10T12:39:00.002Z,7
2022-11-10T12:44:11.846Z,8
2022-11-10T12:49:28.274Z,7
2022-11-10T12:54:44.720Z,6
2022-11-10T13:00:02.332Z,7
2022-11-10T13:05:18.808Z,7
2022-11-10T13:10:35.262Z,6
2022-11-10T13:15:51.712Z,8
2022-11-10T13:21:08.335Z,8
2022-11-10T13:26:24.718Z,7
2022-11-10T13:31:41.152Z,7
2022-11-10T13:36:57.605Z,7
2022-11-10T13:42:14.052Z,7
2022-11-10T13:47:30.479Z,7
2022-11-10T13:52:46.907Z,7
2022-11-10T13:58:03.349Z,7
2022-11-10T14:03:19.762Z,8
2022-11-10T14:08:36.194Z,8
2022-11-10T14:13:52.620Z,9
2022-11-10T14:19:09.095Z,9
2022-11-10T14:24:25.509Z,8
2022-11-10T14:29:42.021Z,8
2022-11-10T14:34:58.497Z,8
2022-11-10T14:40:14.975Z,8
2022-11-10T14:45:31.427Z,12
2022-11-10T14:50:47.862Z,11
2022-11-10T14:56:04.312Z,11
2022-11-10T15:01:20.779Z,12
2022-11-10T15:06:37.351Z,11
2022-11-10T15:11:53.761Z,14
2022-11-10T15:17:10.384Z,13
2022-11-10T15:22:26.828Z,12
2022-11-10T15:27:45.160Z,14
2022-11-10T15:33:02.437Z,15
2022-11-10T15:38:20.688Z,16
2022-11-10T15:43:32.674Z,14
2022-11-10T15:49:10.307Z,14
2022-11-10T15:54:26.788Z,14
2022-11-10T15:59:43.252Z,15
2022-11-10T16:05:00.104Z,15
2022-11-10T16:10:16.179Z,16
2022-11-10T16:15:32.669Z,18
2022-11-10T16:20:49.169Z,16
2022-11-10T16:26:05.670Z,22
2022-11-10T16:31:22.114Z,23
2022-11-10T16:36:38.594Z,22
2022-11-10T16:41:55.104Z,22
2022-11-10T16:47:11.561Z,18
2022-11-10T16:52:28.051Z,17
2022-11-10T16:57:44.508Z,16
2022-11-10T17:03:00.972Z,16
2022-11-10T17:08:17.396Z,17
2022-11-10T17:13:33.869Z,15
2022-11-10T17:18:50.319Z,21
2022-11-10T17:24:06.785Z,23
2022-11-10T17:29:23.308Z,23
2022-11-10T17:34:39.737Z,21
2022-11-10T17:39:56.174Z,21
2022-11-10T17:45:12.352Z,23
2022-11-10T17:50:29.028Z,24
2022-11-10T17:55:45.417Z,24
2022-11-10T18:01:01.964Z,25
2022-11-10T18:06:18.365Z,22
2022-11-10T18:11:34.870Z,34
2022-11-10T18:16:51.925Z,35
2022-11-10T18:22:08.201Z,38
2022-11-10T18:27:24.706Z,35
2022-11-10T18:32:41.813Z,37
2022-11-10T18:37:58.324Z,34
2022-11-10T18:43:14.856Z,32
2022-11-10T18:48:36.152Z,32
2022-11-10T18:53:47.891Z,31
2022-11-10T18:59:04.399Z,28
2022-11-10T19:04:20.837Z,24
2022-11-10T19:09:37.341Z,24
2022-11-10T19:14:53.840Z,23
2022-11-10T19:20:10.322Z,25
2022-11-10T19:25:26.836Z,28
2022-11-10T19:30:43.351Z,25
2022-11-10T19:35:59.820Z,25
2022-11-10T19:41:16.286Z,25
2022-11-10T19:46:32.770Z,21
2022-11-10T19:51:49.255Z,18
2022-11-10T19:57:05.772Z,19
2022-11-10T20:02:22.798Z,19
2022-11-10T20:07:39.247Z,20
2022-11-10T20:12:55.817Z,18
2022-11-10T20:18:12.205Z,18
2022-11-10T20:23:28.676Z,20
2022-11-10T20:28:45.102Z,23
2022-11-10T20:34:01.831Z,26
2022-11-10T20:39:18.092Z,30
2022-11-10T20:44:34.613Z,28
2022-11-10T20:49:51.080Z,34
2022-11-10T20:55:07.585Z,33
2022-11-10T21:00:29.680Z,33
2022-11-10T21:05:46.201Z,32
2022-11-10T21:11:04.180Z,32
2022-11-10T21:16:20.714Z,32
2022-11-10T21:21:37.199Z,28
2022-11-10T21:26:54.297Z,32
2022-11-10T21:32:10.780Z,27
2022-11-10T21:37:27.254Z,26
2022-11-10T21:42:43.765Z,26
2022-11-10T21:48:01.695Z,26
2022-11-10T21:53:18.207Z,22
2022-11-10T21:58:34.668Z,21
2022-11-10T22:03:51.199Z,20
2022-11-10T22:09:07.705Z,17
2022-11-10T22:14:24.173Z,23
2022-11-10T22:19:40.648Z,24
2022-11-10T22:24:57.189Z,30
2022-11-10T22:30:13.669Z,33
2022-11-10T22:35:30.733Z,29
2022-11-10T22:40:47.217Z,27
2022-11-10T22:46:03.694Z,25
2022-11-10T22:51:20.188Z,23
2022-11-10T22:56:36.683Z,22
2022-11-10T23:01:53.304Z,19
2022-11-10T23:07:09.700Z,18
2022-11-10T23:12:26.125Z,15
2022-11-10T23:17:42.601Z,12
2022-11-10T23:22:59.073Z,10
2022-11-10T23:28:15.568Z,10
2022-11-10T23:33:33.455Z,9
2022-11-10T23:38:49.114Z,9
2022-11-10T23:44:05.588Z,6
2022-11-10T23:49:22.075Z,6
2022-11-10T23:54:38.511Z,4
2022-11-10T23:59:55.007Z,5
